sensor_id;sensor_type;location;lat;lon;timestamp;pressure;altitude;pressure_sealevel;temperature;humidity
69239;BME280;56349;51.816;-0.026;2022-10-22T00:02:18;99658.62;;;23.33;37.66
69239;BME280;56349;51.816;-0.026;2022-10-22T00:04:44;99659.90;;;23.23;37.79
69239;BME280;56349;51.816;-0.026;2022-10-22T00:07:09;99666.41;;;23.36;37.94
69239;BME280;56349;51.816;-0.026;2022-10-22T00:09:35;99671.47;;;23.27;38.08
69239;BME280;56349;51.816;-0.026;2022-10-22T00:12:01;99679.12;;;23.18;38.22
69239;BME280;56349;51.816;-0.026;2022-10-22T00:14:27;99676.93;;;22.88;38.34
69239;BME280;56349;51.816;-0.026;2022-10-22T00:16:53;99680.80;;;23.02;38.45
69239;BME280;56349;51.816;-0.026;2022-10-22T00:19:19;99686.53;;;22.96;38.54
69239;BME280;56349;51.816;-0.026;2022-10-22T00:21:46;99694.18;;;22.90;38.65
69239;BME280;56349;51.816;-0.026;2022-10-22T00:24:12;99696.87;;;22.83;38.75
69239;BME280;56349;51.816;-0.026;2022-10-22T00:26:37;99701.70;;;22.82;38.80
69239;BME280;56349;51.816;-0.026;2022-10-22T00:29:03;99697.89;;;22.80;38.84
69239;BME280;56349;51.816;-0.026;2022-10-22T00:31:29;99701.08;;;22.75;38.92
69239;BME280;56349;51.816;-0.026;2022-10-22T00:33:54;99698.99;;;22.67;39.01
69239;BME280;56349;51.816;-0.026;2022-10-22T00:36:20;99701.10;;;22.60;39.13
69239;BME280;56349;51.816;-0.026;2022-10-22T00:38:46;99705.98;;;22.52;39.23
69239;BME280;56349;51.816;-0.026;2022-10-22T00:41:13;99706.77;;;22.46;39.34
69239;BME280;56349;51.816;-0.026;2022-10-22T00:46:03;99713.93;;;22.37;39.49
69239;BME280;56349;51.816;-0.026;2022-10-22T00:48:31;99715.84;;;22.60;39.56
69239;BME280;56349;51.816;-0.026;2022-10-22T00:50:57;99718.52;;;22.29;39.65
69239;BME280;56349;51.816;-0.026;2022-10-22T00:53:30;99723.37;;;22.52;39.69
69239;BME280;56349;51.816;-0.026;2022-10-22T00:55:50;99726.18;;;22.70;39.75
69239;BME280;56349;51.816;-0.026;2022-10-22T00:58:12;99732.86;;;22.18;39.82
69239;BME280;56349;51.816;-0.026;2022-10-22T01:00:38;99738.63;;;22.40;39.88
69239;BME280;56349;51.816;-0.026;2022-10-22T01:03:04;99742.20;;;22.37;39.94
69239;BME280;56349;51.816;-0.026;2022-10-22T01:05:32;99746.28;;;22.56;39.99
69239;BME280;56349;51.816;-0.026;2022-10-22T01:07:54;99751.62;;;22.53;40.05
69239;BME280;56349;51.816;-0.026;2022-10-22T01:10:27;99750.01;;;22.51;40.10
69239;BME280;56349;51.816;-0.026;2022-10-22T01:12:53;99752.99;;;22.49;40.13
69239;BME280;56349;51.816;-0.026;2022-10-22T01:15:21;99756.74;;;22.47;40.16
69239;BME280;56349;51.816;-0.026;2022-10-22T01:17:41;99760.46;;;22.44;40.22
69239;BME280;56349;51.816;-0.026;2022-10-22T01:20:12;99769.48;;;22.44;40.23
69239;BME280;56349;51.816;-0.026;2022-10-22T01:22:33;99774.04;;;22.42;40.26
69239;BME280;56349;51.816;-0.026;2022-10-22T01:24:57;99775.47;;;22.17;40.29
69239;BME280;56349;51.816;-0.026;2022-10-22T01:27:25;99775.04;;;22.14;40.34
69239;BME280;56349;51.816;-0.026;2022-10-22T01:29:48;99777.69;;;21.88;40.34
69239;BME280;56349;51.816;-0.026;2022-10-22T01:32:12;99778.07;;;22.37;40.34
69239;BME280;56349;51.816;-0.026;2022-10-22T01:34:37;99781.76;;;22.34;40.38
69239;BME280;56349;51.816;-0.026;2022-10-22T01:37:02;99785.95;;;22.32;40.41
69239;BME280;56349;51.816;-0.026;2022-10-22T01:39:28;99789.04;;;22.31;40.44
69239;BME280;56349;51.816;-0.026;2022-10-22T01:41:58;99790.05;;;22.29;40.46
69239;BME280;56349;51.816;-0.026;2022-10-22T01:44:24;99790.92;;;22.26;40.49
69239;BME280;56349;51.816;-0.026;2022-10-22T01:46:47;99794.49;;;22.03;40.51
69239;BME280;56349;51.816;-0.026;2022-10-22T01:49:16;99795.85;;;22.02;40.52
69239;BME280;56349;51.816;-0.026;2022-10-22T01:51:43;99795.19;;;21.74;40.56
69239;BME280;56349;51.816;-0.026;2022-10-22T01:54:05;99803.29;;;21.73;40.57
69239;BME280;56349;51.816;-0.026;2022-10-22T01:56:34;99802.28;;;21.98;40.58
69239;BME280;56349;51.816;-0.026;2022-10-22T01:58:58;99805.30;;;22.20;40.60
69239;BME280;56349;51.816;-0.026;2022-10-22T02:01:25;99804.97;;;21.99;40.59
69239;BME280;56349;51.816;-0.026;2022-10-22T02:03:46;99810.69;;;22.22;40.57
69239;BME280;56349;51.816;-0.026;2022-10-22T02:06:13;99812.80;;;22.19;40.60
69239;BME280;56349;51.816;-0.026;2022-10-22T02:08:35;99814.26;;;22.18;40.62
69239;BME280;56349;51.816;-0.026;2022-10-22T02:11:01;99815.84;;;22.16;40.64
69239;BME280;56349;51.816;-0.026;2022-10-22T02:13:29;99818.16;;;22.15;40.66
69239;BME280;56349;51.816;-0.026;2022-10-22T02:15:53;99819.11;;;22.12;40.70
69239;BME280;56349;51.816;-0.026;2022-10-22T02:18:19;99823.43;;;22.09;40.75
69239;BME280;56349;51.816;-0.026;2022-10-22T02:20:44;99823.72;;;22.08;40.77
69239;BME280;56349;51.816;-0.026;2022-10-22T02:23:09;99831.85;;;22.29;40.79
69239;BME280;56349;51.816;-0.026;2022-10-22T02:25:37;99831.99;;;22.05;40.81
69239;BME280;56349;51.816;-0.026;2022-10-22T02:28:06;99838.88;;;22.04;40.84
69239;BME280;56349;51.816;-0.026;2022-10-22T02:30:25;99839.42;;;22.02;40.86
69239;BME280;56349;51.816;-0.026;2022-10-22T02:32:55;99837.87;;;22.01;40.87
69239;BME280;56349;51.816;-0.026;2022-10-22T02:35:19;99841.60;;;22.02;40.87
69239;BME280;56349;51.816;-0.026;2022-10-22T02:37:43;99846.37;;;22.01;40.87
69239;BME280;56349;51.816;-0.026;2022-10-22T02:40:09;99852.95;;;22.21;40.89
69239;BME280;56349;51.816;-0.026;2022-10-22T02:42:36;99856.12;;;21.99;40.89
69239;BME280;56349;51.816;-0.026;2022-10-22T02:45:00;99859.57;;;21.98;40.92
69239;BME280;56349;51.816;-0.026;2022-10-22T02:47:26;99859.83;;;21.97;40.92
69239;BME280;56349;51.816;-0.026;2022-10-22T02:49:51;99856.24;;;22.18;40.93
69239;BME280;56349;51.816;-0.026;2022-10-22T02:52:18;99858.86;;;21.94;40.96
69239;BME280;56349;51.816;-0.026;2022-10-22T02:54:42;99863.56;;;21.93;40.97
69239;BME280;56349;51.816;-0.026;2022-10-22T02:57:08;99872.49;;;21.72;40.97
69239;BME280;56349;51.816;-0.026;2022-10-22T02:59:33;99869.45;;;21.96;40.93
69239;BME280;56349;51.816;-0.026;2022-10-22T03:01:59;99871.35;;;22.17;40.96
69239;BME280;56349;51.816;-0.026;2022-10-22T03:04:25;99873.89;;;21.94;40.96
69239;BME280;56349;51.816;-0.026;2022-10-22T03:06:51;99880.15;;;21.93;40.98
69239;BME280;56349;51.816;-0.026;2022-10-22T03:09:17;99885.75;;;21.91;40.99
69239;BME280;56349;51.816;-0.026;2022-10-22T03:11:43;99890.29;;;21.89;41.01
69239;BME280;56349;51.816;-0.026;2022-10-22T03:14:08;99894.99;;;21.88;41.03
69239;BME280;56349;51.816;-0.026;2022-10-22T03:16:34;99894.75;;;21.86;41.04
69239;BME280;56349;51.816;-0.026;2022-10-22T03:18:59;99893.72;;;21.85;41.07
69239;BME280;56349;51.816;-0.026;2022-10-22T03:21:31;99893.39;;;21.86;41.05
69239;BME280;56349;51.816;-0.026;2022-10-22T03:23:51;99895.59;;;21.87;41.04
69239;BME280;56349;51.816;-0.026;2022-10-22T03:26:16;99901.28;;;22.12;40.99
69239;BME280;56349;51.816;-0.026;2022-10-22T03:28:42;99908.62;;;21.86;41.02
69239;BME280;56349;51.816;-0.026;2022-10-22T03:31:08;99914.26;;;21.84;41.10
69239;BME280;56349;51.816;-0.026;2022-10-22T03:33:33;99912.38;;;21.85;41.15
69239;BME280;56349;51.816;-0.026;2022-10-22T03:35:59;99913.78;;;22.13;41.17
69239;BME280;56349;51.816;-0.026;2022-10-22T03:38:25;99917.53;;;21.96;41.21
69239;BME280;56349;51.816;-0.026;2022-10-22T03:40:50;99924.64;;;22.03;41.23
69239;BME280;56349;51.816;-0.026;2022-10-22T03:43:16;99932.22;;;22.14;41.19
69239;BME280;56349;51.816;-0.026;2022-10-22T03:45:41;99939.52;;;22.34;41.01
69239;BME280;56349;51.816;-0.026;2022-10-22T03:48:06;99944.83;;;22.28;40.80
69239;BME280;56349;51.816;-0.026;2022-10-22T03:50:31;99939.83;;;22.14;40.59
69239;BME280;56349;51.816;-0.026;2022-10-22T03:52:57;99943.38;;;22.26;40.40
69239;BME280;56349;51.816;-0.026;2022-10-22T03:55:22;99952.44;;;22.62;40.21
69239;BME280;56349;51.816;-0.026;2022-10-22T03:57:47;99955.50;;;22.67;40.06
69239;BME280;56349;51.816;-0.026;2022-10-22T04:00:12;99961.58;;;22.43;39.94
69239;BME280;56349;51.816;-0.026;2022-10-22T04:02:37;99966.68;;;22.44;39.86
69239;BME280;56349;51.816;-0.026;2022-10-22T04:05:04;99969.29;;;22.71;39.78
69239;BME280;56349;51.816;-0.026;2022-10-22T04:07:29;99971.82;;;22.43;39.74
69239;BME280;56349;51.816;-0.026;2022-10-22T04:09:55;99974.62;;;22.40;39.70
69239;BME280;56349;51.816;-0.026;2022-10-22T04:12:20;99979.22;;;22.62;39.71
69239;BME280;56349;51.816;-0.026;2022-10-22T04:14:47;99983.79;;;22.31;39.73
69239;BME280;56349;51.816;-0.026;2022-10-22T04:17:11;99986.43;;;22.24;39.77
69239;BME280;56349;51.816;-0.026;2022-10-22T04:19:38;99992.96;;;22.65;39.83
69239;BME280;56349;51.816;-0.026;2022-10-22T04:22:03;99995.47;;;22.37;39.87
69239;BME280;56349;51.816;-0.026;2022-10-22T04:24:29;99996.53;;;22.06;39.90
69239;BME280;56349;51.816;-0.026;2022-10-22T04:26:54;99996.33;;;22.29;39.94
69239;BME280;56349;51.816;-0.026;2022-10-22T04:29:19;100009.63;;;22.45;40.00
69239;BME280;56349;51.816;-0.026;2022-10-22T04:31:44;100014.77;;;22.41;40.04
69239;BME280;56349;51.816;-0.026;2022-10-22T04:34:10;100025.57;;;22.40;40.06
69239;BME280;56349;51.816;-0.026;2022-10-22T04:36:37;100030.06;;;22.38;40.06
69239;BME280;56349;51.816;-0.026;2022-10-22T04:39:03;100031.35;;;22.34;40.10
69239;BME280;56349;51.816;-0.026;2022-10-22T04:41:29;100033.72;;;22.31;40.13
69239;BME280;56349;51.816;-0.026;2022-10-22T04:43:54;100034.78;;;22.27;40.16
69239;BME280;56349;51.816;-0.026;2022-10-22T04:46:19;100041.38;;;21.99;40.23
69239;BME280;56349;51.816;-0.026;2022-10-22T04:48:45;100044.78;;;22.17;40.27
69239;BME280;56349;51.816;-0.026;2022-10-22T04:51:13;100049.53;;;22.13;40.33
69239;BME280;56349;51.816;-0.026;2022-10-22T04:53:36;100050.39;;;22.10;40.38
69239;BME280;56349;51.816;-0.026;2022-10-22T04:56:08;100055.99;;;22.09;40.40
69239;BME280;56349;51.816;-0.026;2022-10-22T04:58:26;100058.26;;;22.06;40.42
69239;BME280;56349;51.816;-0.026;2022-10-22T05:00:52;100062.54;;;21.81;40.45
69239;BME280;56349;51.816;-0.026;2022-10-22T05:03:18;100062.65;;;22.00;40.48
69239;BME280;56349;51.816;-0.026;2022-10-22T05:05:43;100068.29;;;21.97;40.52
69239;BME280;56349;51.816;-0.026;2022-10-22T05:08:09;100067.47;;;21.94;40.55
69239;BME280;56349;51.816;-0.026;2022-10-22T05:10:35;100069.38;;;21.92;40.57
69239;BME280;56349;51.816;-0.026;2022-10-22T05:13:01;100071.35;;;21.89;40.60
69239;BME280;56349;51.816;-0.026;2022-10-22T05:15:27;100079.03;;;21.86;40.64
69239;BME280;56349;51.816;-0.026;2022-10-22T05:17:54;100079.38;;;21.84;40.67
69239;BME280;56349;51.816;-0.026;2022-10-22T05:20:20;100086.53;;;22.04;40.69
69239;BME280;56349;51.816;-0.026;2022-10-22T05:22:45;100091.00;;;21.78;40.73
69239;BME280;56349;51.816;-0.026;2022-10-22T05:25:10;100095.32;;;21.75;40.77
69239;BME280;56349;51.816;-0.026;2022-10-22T05:27:36;100095.54;;;21.74;40.78
69239;BME280;56349;51.816;-0.026;2022-10-22T05:30:02;100091.14;;;21.97;40.77
69239;BME280;56349;51.816;-0.026;2022-10-22T05:32:28;100094.71;;;21.73;40.78
69239;BME280;56349;51.816;-0.026;2022-10-22T05:34:53;100099.01;;;21.75;40.76
69239;BME280;56349;51.816;-0.026;2022-10-22T05:37:19;100100.39;;;21.72;40.80
69239;BME280;56349;51.816;-0.026;2022-10-22T05:39:46;100107.88;;;21.69;40.83
69239;BME280;56349;51.816;-0.026;2022-10-22T05:42:12;100107.45;;;21.67;40.86
69239;BME280;56349;51.816;-0.026;2022-10-22T05:44:38;100110.09;;;21.66;40.88
69239;BME280;56349;51.816;-0.026;2022-10-22T05:47:03;100111.02;;;21.64;40.89
69239;BME280;56349;51.816;-0.026;2022-10-22T05:49:28;100118.48;;;21.85;40.91
69239;BME280;56349;51.816;-0.026;2022-10-22T05:51:54;100128.25;;;21.62;40.91
69239;BME280;56349;51.816;-0.026;2022-10-22T05:54:20;100133.39;;;21.60;40.93
69239;BME280;56349;51.816;-0.026;2022-10-22T05:56:47;100140.45;;;21.57;40.96
69239;BME280;56349;51.816;-0.026;2022-10-22T05:59:12;100147.39;;;21.55;41.00
69239;BME280;56349;51.816;-0.026;2022-10-22T06:01:38;100146.83;;;21.53;41.02
69239;BME280;56349;51.816;-0.026;2022-10-22T06:04:04;100148.41;;;21.78;40.99
69239;BME280;56349;51.816;-0.026;2022-10-22T06:06:29;100152.80;;;21.80;40.96
69239;BME280;56349;51.816;-0.026;2022-10-22T06:08:54;100153.11;;;21.77;40.99
69239;BME280;56349;51.816;-0.026;2022-10-22T06:11:21;100157.79;;;21.75;41.01
69239;BME280;56349;51.816;-0.026;2022-10-22T06:13:44;100167.08;;;21.51;41.03
69239;BME280;56349;51.816;-0.026;2022-10-22T06:16:09;100169.16;;;21.50;41.05
69239;BME280;56349;51.816;-0.026;2022-10-22T06:18:35;100168.73;;;21.70;41.08
69239;BME280;56349;51.816;-0.026;2022-10-22T06:21:06;100177.84;;;21.47;41.09
69239;BME280;56349;51.816;-0.026;2022-10-22T06:23:27;100187.40;;;21.66;41.12
69239;BME280;56349;51.816;-0.026;2022-10-22T06:25:55;100191.07;;;21.65;41.14
69239;BME280;56349;51.816;-0.026;2022-10-22T06:28:18;100197.20;;;21.91;41.14
69239;BME280;56349;51.816;-0.026;2022-10-22T06:30:43;100202.54;;;21.42;41.16
69239;BME280;56349;51.816;-0.026;2022-10-22T06:33:09;100202.08;;;21.42;41.15
69239;BME280;56349;51.816;-0.026;2022-10-22T06:35:35;100202.74;;;21.42;41.15
69239;BME280;56349;51.816;-0.026;2022-10-22T06:38:01;100205.76;;;21.41;41.16
69239;BME280;56349;51.816;-0.026;2022-10-22T06:40:27;100212.44;;;21.62;41.17
69239;BME280;56349;51.816;-0.026;2022-10-22T06:42:53;100217.15;;;21.61;41.19
69239;BME280;56349;51.816;-0.026;2022-10-22T06:45:19;100226.80;;;21.38;41.19
69239;BME280;56349;51.816;-0.026;2022-10-22T06:47:46;100229.58;;;21.59;41.24
69239;BME280;56349;51.816;-0.026;2022-10-22T06:50:12;100234.19;;;21.59;41.31
69239;BME280;56349;51.816;-0.026;2022-10-22T06:52:38;100240.71;;;21.40;41.40
69239;BME280;56349;51.816;-0.026;2022-10-22T06:55:04;100251.34;;;21.47;41.59
69239;BME280;56349;51.816;-0.026;2022-10-22T06:57:29;100251.85;;;21.53;41.69
69239;BME280;56349;51.816;-0.026;2022-10-22T06:59:54;100255.10;;;21.61;42.03
69239;BME280;56349;51.816;-0.026;2022-10-22T07:02:20;100257.04;;;21.74;42.22
69239;BME280;56349;51.816;-0.026;2022-10-22T07:04:45;100260.87;;;21.91;42.24
69239;BME280;56349;51.816;-0.026;2022-10-22T07:07:11;100262.47;;;22.10;42.20
69239;BME280;56349;51.816;-0.026;2022-10-22T07:09:38;100261.28;;;22.32;42.15
69239;BME280;56349;51.816;-0.026;2022-10-22T07:12:03;100264.78;;;22.34;42.04
69239;BME280;56349;51.816;-0.026;2022-10-22T07:14:28;100271.04;;;22.32;41.75
69239;BME280;56349;51.816;-0.026;2022-10-22T07:16:54;100275.65;;;22.58;41.43
69239;BME280;56349;51.816;-0.026;2022-10-22T07:19:19;100280.83;;;22.85;41.06
69239;BME280;56349;51.816;-0.026;2022-10-22T07:21:44;100283.76;;;23.09;40.72
69239;BME280;56349;51.816;-0.026;2022-10-22T07:24:10;100289.55;;;23.11;40.41
69239;BME280;56349;51.816;-0.026;2022-10-22T07:26:36;100293.14;;;23.08;40.08
69239;BME280;56349;51.816;-0.026;2022-10-22T07:29:03;100295.54;;;23.32;39.77
69239;BME280;56349;51.816;-0.026;2022-10-22T07:31:29;100294.99;;;23.52;39.46
69239;BME280;56349;51.816;-0.026;2022-10-22T07:33:54;100296.80;;;23.73;39.14
69239;BME280;56349;51.816;-0.026;2022-10-22T07:36:19;100303.65;;;23.93;39.01
69239;BME280;56349;51.816;-0.026;2022-10-22T07:38:47;100304.64;;;24.11;38.79
69239;BME280;56349;51.816;-0.026;2022-10-22T07:41:12;100308.61;;;23.84;38.50
69239;BME280;56349;51.816;-0.026;2022-10-22T07:43:37;100314.12;;;24.00;38.19
69239;BME280;56349;51.816;-0.026;2022-10-22T07:46:04;100320.69;;;24.16;37.88
69239;BME280;56349;51.816;-0.026;2022-10-22T07:48:30;100326.22;;;24.31;37.60
69239;BME280;56349;51.816;-0.026;2022-10-22T07:50:55;100332.28;;;24.46;37.33
69239;BME280;56349;51.816;-0.026;2022-10-22T07:53:20;100333.99;;;24.56;37.11
69239;BME280;56349;51.816;-0.026;2022-10-22T07:55:47;100339.33;;;24.68;36.89
69239;BME280;56349;51.816;-0.026;2022-10-22T07:58:11;100346.19;;;24.79;36.67
69239;BME280;56349;51.816;-0.026;2022-10-22T08:00:37;100351.35;;;24.57;36.51
69239;BME280;56349;51.816;-0.026;2022-10-22T08:03:03;100351.70;;;24.65;36.35
69239;BME280;56349;51.816;-0.026;2022-10-22T08:05:29;100358.11;;;24.71;36.18
69239;BME280;56349;51.816;-0.026;2022-10-22T08:07:55;100358.16;;;24.73;36.07
69239;BME280;56349;51.816;-0.026;2022-10-22T08:10:21;100357.60;;;25.03;35.95
69239;BME280;56349;51.816;-0.026;2022-10-22T08:12:47;100362.85;;;24.59;35.85
69239;BME280;56349;51.816;-0.026;2022-10-22T08:15:13;100370.62;;;24.59;35.80
69239;BME280;56349;51.816;-0.026;2022-10-22T08:17:39;100377.35;;;24.81;35.75
69239;BME280;56349;51.816;-0.026;2022-10-22T08:20:06;100379.01;;;24.60;35.75
69239;BME280;56349;51.816;-0.026;2022-10-22T08:22:32;100379.44;;;24.88;35.69
69239;BME280;56349;51.816;-0.026;2022-10-22T08:24:57;100381.29;;;24.96;35.61
69239;BME280;56349;51.816;-0.026;2022-10-22T08:27:24;100382.41;;;24.79;35.61
69239;BME280;56349;51.816;-0.026;2022-10-22T08:29:50;100382.32;;;25.05;35.61
69239;BME280;56349;51.816;-0.026;2022-10-22T08:32:15;100383.40;;;25.10;35.62
69239;BME280;56349;51.816;-0.026;2022-10-22T08:34:40;100383.60;;;24.98;35.52
69239;BME280;56349;51.816;-0.026;2022-10-22T08:37:07;100386.53;;;25.02;35.50
69239;BME280;56349;51.816;-0.026;2022-10-22T08:39:31;100383.88;;;25.07;35.38
69239;BME280;56349;51.816;-0.026;2022-10-22T08:42:04;100385.41;;;25.11;35.29
69239;BME280;56349;51.816;-0.026;2022-10-22T08:44:38;100389.65;;;25.11;35.24
69239;BME280;56349;51.816;-0.026;2022-10-22T08:47:05;100391.97;;;25.38;35.14
69239;BME280;56349;51.816;-0.026;2022-10-22T08:49:19;100394.05;;;25.14;35.08
69239;BME280;56349;51.816;-0.026;2022-10-22T08:51:40;100395.27;;;25.17;35.00
69239;BME280;56349;51.816;-0.026;2022-10-22T08:54:14;100397.68;;;25.21;34.92
69239;BME280;56349;51.816;-0.026;2022-10-22T08:56:32;100397.35;;;24.75;34.85
69239;BME280;56349;51.816;-0.026;2022-10-22T08:58:59;100398.26;;;25.07;34.73
69239;BME280;56349;51.816;-0.026;2022-10-22T09:01:31;100404.84;;;25.32;34.65
69239;BME280;56349;51.816;-0.026;2022-10-22T09:03:51;100409.19;;;25.31;34.61
69239;BME280;56349;51.816;-0.026;2022-10-22T09:06:16;100413.53;;;25.30;34.62
69239;BME280;56349;51.816;-0.026;2022-10-22T09:08:42;100413.37;;;25.15;34.57
69239;BME280;56349;51.816;-0.026;2022-10-22T09:13:31;100416.77;;;25.28;34.42
69239;BME280;56349;51.816;-0.026;2022-10-22T09:16:00;100417.67;;;25.56;34.36
69239;BME280;56349;51.816;-0.026;2022-10-22T09:18:32;100417.99;;;25.57;34.31
69239;BME280;56349;51.816;-0.026;2022-10-22T09:20:54;100416.43;;;25.59;34.24
69239;BME280;56349;51.816;-0.026;2022-10-22T09:23:22;100414.44;;;25.62;34.16
69239;BME280;56349;51.816;-0.026;2022-10-22T09:25:39;100413.25;;;25.43;34.05
69239;BME280;56349;51.816;-0.026;2022-10-22T09:28:04;100415.53;;;25.46;33.99
69239;BME280;56349;51.816;-0.026;2022-10-22T09:30:33;100416.12;;;25.70;33.94
69239;BME280;56349;51.816;-0.026;2022-10-22T09:33:00;100416.85;;;25.22;33.88
69239;BME280;56349;51.816;-0.026;2022-10-22T09:35:22;100417.57;;;25.23;33.86
69239;BME280;56349;51.816;-0.026;2022-10-22T09:37:48;100420.18;;;25.53;33.78
69239;BME280;56349;51.816;-0.026;2022-10-22T09:40:13;100421.43;;;25.28;33.73
69239;BME280;56349;51.816;-0.026;2022-10-22T09:42:37;100426.16;;;25.26;33.71
69239;BME280;56349;51.816;-0.026;2022-10-22T09:45:03;100428.22;;;25.53;33.67
69239;BME280;56349;51.816;-0.026;2022-10-22T09:47:32;100428.47;;;25.54;33.62
69239;BME280;56349;51.816;-0.026;2022-10-22T09:52:26;100431.12;;;25.54;33.55
69239;BME280;56349;51.816;-0.026;2022-10-22T09:54:44;100433.70;;;25.73;33.53
69239;BME280;56349;51.816;-0.026;2022-10-22T09:57:15;100436.13;;;25.22;33.47
69239;BME280;56349;51.816;-0.026;2022-10-22T09:59:37;100434.42;;;25.67;33.42
69239;BME280;56349;51.816;-0.026;2022-10-22T10:02:09;100443.60;;;25.37;33.40
69239;BME280;56349;51.816;-0.026;2022-10-22T10:04:25;100447.58;;;25.25;33.41
69239;BME280;56349;51.816;-0.026;2022-10-22T10:06:54;100447.66;;;25.26;33.51
69239;BME280;56349;51.816;-0.026;2022-10-22T10:09:18;100452.58;;;25.26;33.67
69239;BME280;56349;51.816;-0.026;2022-10-22T10:11:44;100460.57;;;24.82;33.83
69239;BME280;56349;51.816;-0.026;2022-10-22T10:14:11;100464.90;;;24.83;34.01
69239;BME280;56349;51.816;-0.026;2022-10-22T10:16:41;100471.73;;;24.87;34.21
69239;BME280;56349;51.816;-0.026;2022-10-22T10:19:08;100473.67;;;24.60;34.49
69239;BME280;56349;51.816;-0.026;2022-10-22T10:21:30;100475.31;;;24.57;34.73
69239;BME280;56349;51.816;-0.026;2022-10-22T10:23:54;100478.56;;;24.58;34.99
69239;BME280;56349;51.816;-0.026;2022-10-22T10:26:19;100484.16;;;24.43;35.02
69239;BME280;56349;51.816;-0.026;2022-10-22T10:28:54;100486.84;;;23.83;35.10
69239;BME280;56349;51.816;-0.026;2022-10-22T10:31:13;100487.28;;;24.12;34.98
69239;BME280;56349;51.816;-0.026;2022-10-22T10:33:37;100490.50;;;23.74;34.75
69239;BME280;56349;51.816;-0.026;2022-10-22T10:36:03;100492.03;;;23.81;34.73
69239;BME280;56349;51.816;-0.026;2022-10-22T10:38:35;100494.50;;;23.42;34.76
69239;BME280;56349;51.816;-0.026;2022-10-22T10:40:51;100491.06;;;23.48;35.13
69239;BME280;56349;51.816;-0.026;2022-10-22T10:43:17;100492.74;;;23.32;35.65
69239;BME280;56349;51.816;-0.026;2022-10-22T10:45:47;100500.82;;;23.66;36.00
69239;BME280;56349;51.816;-0.026;2022-10-22T10:48:16;100500.86;;;23.49;36.35
69239;BME280;56349;51.816;-0.026;2022-10-22T10:50:40;100499.28;;;23.37;36.64
69239;BME280;56349;51.816;-0.026;2022-10-22T10:53:05;100500.89;;;23.27;36.83
69239;BME280;56349;51.816;-0.026;2022-10-22T10:55:32;100499.36;;;23.18;36.99
69239;BME280;56349;51.816;-0.026;2022-10-22T10:57:59;100500.34;;;23.08;37.17
69239;BME280;56349;51.816;-0.026;2022-10-22T11:00:16;100500.44;;;23.00;37.31
69239;BME280;56349;51.816;-0.026;2022-10-22T11:02:50;100496.84;;;22.92;37.46
69239;BME280;56349;51.816;-0.026;2022-10-22T11:05:16;100499.18;;;22.84;37.45
69239;BME280;56349;51.816;-0.026;2022-10-22T11:07:37;100499.02;;;22.77;37.71
69239;BME280;56349;51.816;-0.026;2022-10-22T11:10:08;100501.10;;;22.71;37.88
69239;BME280;56349;51.816;-0.026;2022-10-22T11:12:25;100503.34;;;22.68;38.01
69239;BME280;56349;51.816;-0.026;2022-10-22T11:14:55;100506.40;;;22.93;38.14
69239;BME280;56349;51.816;-0.026;2022-10-22T11:17:17;100506.67;;;22.64;38.26
69239;BME280;56349;51.816;-0.026;2022-10-22T11:19:44;100504.73;;;22.60;38.36
69239;BME280;56349;51.816;-0.026;2022-10-22T11:22:12;100501.42;;;22.55;38.49
69239;BME280;56349;51.816;-0.026;2022-10-22T11:24:36;100502.47;;;22.52;38.63
69239;BME280;56349;51.816;-0.026;2022-10-22T11:27:01;100505.56;;;22.76;38.72
69239;BME280;56349;51.816;-0.026;2022-10-22T11:29:25;100506.10;;;22.47;38.80
69239;BME280;56349;51.816;-0.026;2022-10-22T11:31:48;100510.70;;;22.44;38.88
69239;BME280;56349;51.816;-0.026;2022-10-22T11:34:17;100512.45;;;22.68;38.91
69239;BME280;56349;51.816;-0.026;2022-10-22T11:36:40;100514.44;;;22.38;39.01
69239;BME280;56349;51.816;-0.026;2022-10-22T11:39:06;100516.82;;;22.36;39.05
69239;BME280;56349;51.816;-0.026;2022-10-22T11:41:37;100515.36;;;22.37;39.05
69239;BME280;56349;51.816;-0.026;2022-10-22T11:46:33;100512.86;;;22.41;39.00
69239;BME280;56349;51.816;-0.026;2022-10-22T11:53:39;100504.04;;;22.68;39.02
69239;BME280;56349;51.816;-0.026;2022-10-22T11:58:33;100509.44;;;22.58;39.16
69239;BME280;56349;51.816;-0.026;2022-10-22T12:01:11;100507.73;;;22.30;39.21
69239;BME280;56349;51.816;-0.026;2022-10-22T12:08:22;100500.52;;;22.23;39.34
69239;BME280;56349;51.816;-0.026;2022-10-22T12:13:21;100502.44;;;22.64;39.43
69239;BME280;56349;51.816;-0.026;2022-10-22T12:15:30;100505.98;;;22.59;39.53
69239;BME280;56349;51.816;-0.026;2022-10-22T12:17:59;100498.55;;;22.57;39.57
69239;BME280;56349;51.816;-0.026;2022-10-22T12:20:24;100499.99;;;22.08;39.60
69239;BME280;56349;51.816;-0.026;2022-10-22T12:22:46;100502.56;;;22.57;39.60
69239;BME280;56349;51.816;-0.026;2022-10-22T12:25:17;100502.34;;;22.09;39.62
69239;BME280;56349;51.816;-0.026;2022-10-22T12:27:39;100499.00;;;22.33;39.65
69239;BME280;56349;51.816;-0.026;2022-10-22T12:32:33;100493.19;;;22.36;39.65
69239;BME280;56349;51.816;-0.026;2022-10-22T12:34:54;100490.23;;;22.58;39.68
69239;BME280;56349;51.816;-0.026;2022-10-22T12:37:19;100488.66;;;22.56;39.71
69239;BME280;56349;51.816;-0.026;2022-10-22T12:39:45;100489.65;;;22.56;39.72
69239;BME280;56349;51.816;-0.026;2022-10-22T12:42:13;100489.21;;;22.56;39.73
69239;BME280;56349;51.816;-0.026;2022-10-22T12:44:36;100489.21;;;22.29;39.79
69239;BME280;56349;51.816;-0.026;2022-10-22T12:47:01;100492.07;;;22.25;39.86
69239;BME280;56349;51.816;-0.026;2022-10-22T12:49:34;100493.45;;;22.25;39.90
69239;BME280;56349;51.816;-0.026;2022-10-22T12:51:52;100492.09;;;22.31;39.92
69239;BME280;56349;51.816;-0.026;2022-10-22T12:54:23;100497.62;;;22.13;39.86
69239;BME280;56349;51.816;-0.026;2022-10-22T12:56:43;100501.53;;;22.48;39.82
69239;BME280;56349;51.816;-0.026;2022-10-22T12:59:17;100506.28;;;22.30;39.88
69239;BME280;56349;51.816;-0.026;2022-10-22T13:01:36;100502.41;;;22.35;39.80